CheckWX is a tool to help pilots better visualize weather data.  It is not intended as a substitute for an official pre-flight weather briefing.

13:26:56 UTC

EBBE METAR
Beauvechain Air Base Airport
Beauvechain, Belgium
Current

32 mins ago

EBBE 171255Z 15004KT 9999 FEW048 24/12 Q1019 BLU BLU
Observed
Jun-17 @ 12:55 UTC
Wind
  • 150° at 4 KTS
Visibility
10,000+ meters
Flight Rules
VFR
Cloud Levels
  • Few at 4,800' AGL
Temperature
24°C / 75°F
Dewpoint
12°C / 54°F
Humidity
47%
Altimeter
30.09" Hg
Pressure
1018.92 hPa
Previous

1 hour ago

EBBE 171225Z 18003KT 9999 FEW045 23/12 Q1019 BLU BLU
Observed
Jun-17 @ 12:25 UTC
Wind
  • 180° at 3 KTS
Visibility
10,000+ meters
Flight Rules
VFR
Cloud Levels
  • Few at 4,500' AGL
Temperature
23°C / 73°F
Dewpoint
12°C / 54°F
Humidity
50%
Altimeter
30.09" Hg
Pressure
1018.92 hPa
Previous

2 hours ago

EBBE 171155Z 18003KT 9999 FEW043 24/13 Q1019 BLU BLU
Observed
Jun-17 @ 11:55 UTC
Wind
  • 180° at 3 KTS
Visibility
10,000+ meters
Flight Rules
VFR
Cloud Levels
  • Few at 4,300' AGL
Temperature
24°C / 75°F
Dewpoint
13°C / 55°F
Humidity
50%
Altimeter
30.09" Hg
Pressure
1018.92 hPa